Time;durP1;ratioP1;P1;durP2;ratioP2;P2;SDS_P1;SDS_P2;PMS_P1;PMS_P2;Temp;Humidity;BMP_temperature;BMP_pressure;BME280_temperature;BME280_humidity;BME280_pressure;Samples;Min_cycle;Max_cycle;Signal;HPM_P1;HPM_P2
2022/12/19 00:01:31;;;;;;;40.33;16.63;;;;;;;;;;6156967;23;20176;-92
2022/12/19 00:04:36;;;;;;;44.60;16.80;;;;;;;;;;6155652;23;20168;-91
2022/12/19 00:07:41;;;;;;;39.53;15.37;;;;;;;;;;6155296;23;20258;-89
2022/12/19 00:10:55;;;;;;;44.73;15.83;;;;;;;;;;6153331;23;20191;-89
2022/12/19 00:14:02;;;;;;;46.53;15.53;;;;;;;;;;6152221;23;20229;-90
2022/12/19 00:17:07;;;;;;;44.50;16.43;;;;;;;;;;6154016;23;20169;-89
2022/12/19 00:20:12;;;;;;;40.07;15.20;;;;;;;;;;6156207;23;20177;-92
2022/12/19 00:23:18;;;;;;;35.13;14.20;;;;;;;;;;6155620;23;20258;-89
2022/12/19 00:26:25;;;;;;;39.23;13.97;;;;;;;;;;6157297;23;20181;-89
2022/12/19 00:29:31;;;;;;;37.87;13.83;;;;;;;;;;6154771;23;20232;-91
2022/12/19 00:32:39;;;;;;;36.53;12.90;;;;;;;;;;6154462;23;20168;-89
2022/12/19 00:35:45;;;;;;;34.90;12.90;;;;;;;;;;6157588;23;20201;-90
2022/12/19 00:38:52;;;;;;;40.30;14.80;;;;;;;;;;6157009;23;20173;-91
2022/12/19 00:41:57;;;;;;;38.47;14.77;;;;;;;;;;6156412;23;20172;-89
2022/12/19 00:45:13;;;;;;;35.33;14.53;;;;;;;;;;6156604;23;20173;-90
2022/12/19 00:48:19;;;;;;;45.23;15.37;;;;;;;;;;6154758;23;20245;-88
2022/12/19 00:51:31;;;;;;;36.80;14.40;;;;;;;;;;6157541;23;20149;-92
2022/12/19 00:54:36;;;;;;;37.03;14.50;;;;;;;;;;6158653;23;20169;-90
2022/12/19 00:57:42;;;;;;;38.77;14.03;;;;;;;;;;6161164;23;20164;-92
2022/12/19 01:00:51;;;;;;;46.13;15.03;;;;;;;;;;6158390;23;20220;-89
2022/12/19 01:03:58;;;;;;;41.03;14.10;;;;;;;;;;6158304;23;20160;-89
2022/12/19 01:07:06;;;;;;;47.37;15.57;;;;;;;;;;6158026;23;20176;-89
2022/12/19 01:10:12;;;;;;;44.83;15.30;;;;;;;;;;6160899;23;20196;-89
2022/12/19 01:13:17;;;;;;;46.40;15.60;;;;;;;;;;6157759;23;20151;-87
2022/12/19 01:16:24;;;;;;;41.50;16.00;;;;;;;;;;6155692;23;20172;-90
2022/12/19 01:19:30;;;;;;;39.37;14.90;;;;;;;;;;6155730;23;20176;-89
2022/12/19 01:22:35;;;;;;;41.17;15.03;;;;;;;;;;6156372;23;20168;-89
2022/12/19 01:25:41;;;;;;;39.47;14.77;;;;;;;;;;6157235;23;20240;-92
2022/12/19 01:28:46;;;;;;;38.03;14.13;;;;;;;;;;6157409;23;20195;-87
2022/12/19 01:32:06;;;;;;;36.20;14.10;;;;;;;;;;6161887;23;20626;-89
2022/12/19 01:35:13;;;;;;;45.40;15.50;;;;;;;;;;6160171;23;20156;-90
2022/12/19 01:38:22;;;;;;;34.80;13.07;;;;;;;;;;6141290;23;20212;-89
2022/12/19 01:41:28;;;;;;;44.77;15.03;;;;;;;;;;6157425;23;20172;-90
2022/12/19 01:44:35;;;;;;;43.33;15.20;;;;;;;;;;6157693;23;20156;-89
2022/12/19 01:47:45;;;;;;;39.73;14.80;;;;;;;;;;6156241;23;20196;-89
2022/12/19 01:50:59;;;;;;;43.30;15.10;;;;;;;;;;6156474;23;20168;-89
2022/12/19 01:54:09;;;;;;;48.87;15.50;;;;;;;;;;6154203;23;20239;-90
2022/12/19 01:57:20;;;;;;;41.87;15.27;;;;;;;;;;6177815;23;20172;-89
2022/12/19 02:00:27;;;;;;;46.07;15.13;;;;;;;;;;6164669;23;20172;-92
2022/12/19 02:03:34;;;;;;;40.40;15.33;;;;;;;;;;6163088;23;20251;-92
2022/12/19 02:06:42;;;;;;;39.97;14.70;;;;;;;;;;6156547;23;20168;-92
2022/12/19 02:09:49;;;;;;;40.20;14.90;;;;;;;;;;6154799;23;20260;-90
2022/12/19 02:12:55;;;;;;;48.07;15.23;;;;;;;;;;6154668;23;20169;-90
2022/12/19 02:16:04;;;;;;;35.93;13.97;;;;;;;;;;6153629;23;20558;-87
2022/12/19 02:19:15;;;;;;;37.10;14.43;;;;;;;;;;6157971;23;20172;-87
2022/12/19 02:22:26;;;;;;;43.60;13.57;;;;;;;;;;6154804;23;20161;-90
2022/12/19 02:25:50;;;;;;;37.10;14.33;;;;;;;;;;6154732;23;20193;-91
2022/12/19 02:29:02;;;;;;;40.80;15.07;;;;;;;;;;6154664;23;20200;-88
2022/12/19 02:32:18;;;;;;;38.00;14.67;;;;;;;;;;6156036;23;20173;-89
2022/12/19 02:35:27;;;;;;;38.93;14.03;;;;;;;;;;6154068;23;20168;-90
2022/12/19 02:38:36;;;;;;;42.77;15.20;;;;;;;;;;6155103;23;20162;-92
2022/12/19 02:41:45;;;;;;;40.63;15.13;;;;;;;;;;6155108;23;20620;-91
2022/12/19 02:45:06;;;;;;;41.83;14.93;;;;;;;;;;6152999;23;20160;-89
2022/12/19 02:48:13;;;;;;;41.47;15.60;;;;;;;;;;6152138;23;20196;-89
2022/12/19 02:51:19;;;;;;;41.90;15.27;;;;;;;;;;6152177;23;20173;-91
2022/12/19 02:54:26;;;;;;;39.90;15.33;;;;;;;;;;6149848;23;20168;-92
2022/12/19 02:57:34;;;;;;;38.10;14.53;;;;;;;;;;6149782;23;20168;-91
2022/12/19 03:00:45;;;;;;;45.07;15.20;;;;;;;;;;6147744;23;20168;-90
2022/12/19 03:03:58;;;;;;;34.77;14.00;;;;;;;;;;6150037;23;20164;-91
2022/12/19 03:07:07;;;;;;;38.50;14.03;;;;;;;;;;6150329;23;20171;-90
2022/12/19 03:10:15;;;;;;;37.67;14.80;;;;;;;;;;6150658;23;20252;-91
2022/12/19 03:13:26;;;;;;;35.27;13.50;;;;;;;;;;6149885;23;20168;-90
2022/12/19 03:16:34;;;;;;;37.17;13.70;;;;;;;;;;6149320;23;20181;-91
2022/12/19 03:19:41;;;;;;;35.90;14.07;;;;;;;;;;6149668;23;20289;-91
2022/12/19 03:22:47;;;;;;;38.27;14.53;;;;;;;;;;6151164;23;20239;-90
2022/12/19 03:25:55;;;;;;;42.67;14.50;;;;;;;;;;6151617;23;20280;-94
2022/12/19 03:29:02;;;;;;;41.20;14.53;;;;;;;;;;6152314;23;20195;-90
2022/12/19 03:32:09;;;;;;;38.93;15.23;;;;;;;;;;6151864;23;20295;-92
2022/12/19 03:35:18;;;;;;;41.03;16.17;;;;;;;;;;6151827;23;20175;-89
2022/12/19 03:38:26;;;;;;;35.97;14.00;;;;;;;;;;6153284;23;20168;-91
2022/12/19 03:44:56;;;;;;;39.90;15.50;;;;;;;;;;6168272;23;20235;-91
2022/12/19 03:48:03;;;;;;;41.27;15.40;;;;;;;;;;6150336;23;20247;-92
2022/12/19 03:51:14;;;;;;;45.57;14.87;;;;;;;;;;6152100;23;20152;-91
2022/12/19 03:54:21;;;;;;;41.07;14.10;;;;;;;;;;6152452;23;20213;-90
2022/12/19 03:57:29;;;;;;;37.83;14.37;;;;;;;;;;6153957;23;20209;-90
2022/12/19 04:00:34;;;;;;;37.07;14.30;;;;;;;;;;6152794;23;20204;-91
2022/12/19 23:36:56;;;;;;;56.07;20.60;;;;;;;;;;6184889;22;20206;-91
2022/12/19 23:40:01;;;;;;;53.23;21.57;;;;;;;;;;6184627;23;20219;-92
2022/12/19 23:43:08;;;;;;;64.43;22.83;;;;;;;;;;6182634;23;20180;-90
2022/12/19 23:46:14;;;;;;;66.43;22.00;;;;;;;;;;6183104;23;20151;-93
2022/12/19 23:49:19;;;;;;;62.07;21.47;;;;;;;;;;6185492;23;20214;-88
2022/12/19 23:52:28;;;;;;;63.63;23.20;;;;;;;;;;6185944;23;20678;-90
2022/12/19 23:55:33;;;;;;;68.80;24.83;;;;;;;;;;6186600;23;20156;-90
2022/12/19 23:58:38;;;;;;;68.40;24.10;;;;;;;;;;6185236;23;20246;-93
